Time;durP1;ratioP1;P1;durP2;ratioP2;P2;SDS_P1;SDS_P2;PMS_P1;PMS_P2;Temp;Humidity;BMP_temperature;BMP_pressure;BME280_temperature;BME280_humidity;BME280_pressure;Samples;Min_cycle;Max_cycle;Signal;HPM_P1;HPM_P2
2022/09/02 00:00:49;;;;;;;8.40;4.80;;;18.70;99.90;;;;;;5081320;28;20115;-66
2022/09/02 00:03:15;;;;;;;8.02;4.80;;;18.60;99.90;;;;;;5080611;28;20464;-66
2022/09/02 00:05:42;;;;;;;8.57;5.28;;;18.60;99.90;;;;;;5079734;28;20254;-66
2022/09/02 00:08:09;;;;;;;12.50;5.15;;;18.50;99.90;;;;;;5079537;28;20040;-67
2022/09/02 00:10:37;;;;;;;9.57;5.57;;;18.40;99.90;;;;;;5080391;28;20024;-66
2022/09/02 00:13:05;;;;;;;10.45;5.28;;;18.40;99.90;;;;;;5080187;28;20028;-67
2022/09/02 00:15:32;;;;;;;12.05;6.35;;;18.30;99.90;;;;;;5080171;28;20098;-66
2022/09/02 00:17:59;;;;;;;12.27;6.13;;;18.40;99.90;;;;;;5079961;28;20028;-66
2022/09/02 00:20:27;;;;;;;13.88;6.28;;;18.40;99.90;;;;;;5078902;28;20052;-67
2022/09/02 00:22:52;;;;;;;12.63;6.55;;;18.40;99.90;;;;;;5079905;28;20071;-67
2022/09/02 00:25:19;;;;;;;10.98;6.57;;;18.60;99.90;;;;;;5079865;28;20403;-65
2022/09/02 00:27:45;;;;;;;10.95;6.13;;;18.70;99.90;;;;;;5096063;28;20032;-65
2022/09/02 00:30:11;;;;;;;8.60;5.88;;;18.60;99.90;;;;;;5079862;28;20051;-66
2022/09/02 00:32:38;;;;;;;12.70;6.18;;;18.50;99.90;;;;;;5079161;28;20025;-67
2022/09/02 00:35:04;;;;;;;11.65;6.40;;;18.50;99.90;;;;;;5080108;28;20339;-66
2022/09/02 00:37:30;;;;;;;13.57;6.70;;;18.40;99.90;;;;;;5079107;28;20032;-66
2022/09/02 00:39:56;;;;;;;10.02;6.30;;;18.40;99.90;;;;;;5080288;28;20488;-67
2022/09/02 00:42:24;;;;;;;9.45;6.00;;;18.40;99.90;;;;;;5080393;28;20396;-64
2022/09/02 00:44:50;;;;;;;10.93;6.50;;;18.30;99.90;;;;;;5080514;28;20372;-66
2022/09/02 00:47:17;;;;;;;11.43;6.78;;;18.30;99.90;;;;;;5080728;28;20043;-66
2022/09/02 00:49:46;;;;;;;13.00;6.60;;;18.30;99.90;;;;;;5079872;28;20131;-66
2022/09/02 00:52:18;;;;;;;13.73;7.07;;;18.20;99.90;;;;;;5079172;28;20293;-66
2022/09/02 00:54:51;;;;;;;12.82;6.57;;;18.20;99.90;;;;;;5095869;28;20178;-66
2022/09/02 00:57:22;;;;;;;15.05;6.68;;;18.20;99.90;;;;;;5095945;28;20032;-66
2022/09/02 01:00:09;;;;;;;13.68;6.75;;;18.30;99.90;;;;;;5080111;28;20021;-65
2022/09/02 01:02:37;;;;;;;11.25;6.40;;;18.30;99.90;;;;;;5079840;28;20037;-66
2022/09/02 01:05:06;;;;;;;11.10;6.07;;;18.20;99.90;;;;;;5079102;28;20040;-66
2022/09/02 01:07:37;;;;;;;15.23;6.63;;;18.10;99.90;;;;;;5079688;28;20317;-67
2022/09/02 01:10:09;;;;;;;10.98;6.70;;;18.00;99.90;;;;;;5079732;28;20029;-66
2022/09/02 01:12:35;;;;;;;11.70;6.43;;;17.90;99.90;;;;;;5079643;28;20389;-66
2022/09/02 01:15:03;;;;;;;13.40;6.68;;;17.90;99.90;;;;;;5079824;28;20162;-65
2022/09/02 01:17:33;;;;;;;10.82;6.88;;;17.90;99.90;;;;;;5078546;28;20036;-64
2022/09/02 01:20:10;;;;;;;17.70;6.78;;;17.80;99.90;;;;;;5078499;28;20055;-66
2022/09/02 01:22:38;;;;;;;15.23;7.05;;;17.80;99.90;;;;;;5079734;28;20404;-68
2022/09/02 01:25:11;;;;;;;13.85;6.80;;;17.80;99.90;;;;;;5079659;28;20327;-66
2022/09/02 01:27:36;;;;;;;;;;;17.80;99.90;;;;;;5079897;28;20082;-67
2022/09/02 01:30:06;;;;;;;11.00;6.95;;;17.70;99.90;;;;;;5079220;28;20168;-66
2022/09/02 01:32:31;;;;;;;10.63;6.47;;;17.60;99.90;;;;;;5079390;28;20025;-64
2022/09/02 01:34:58;;;;;;;7.78;6.20;;;17.60;99.90;;;;;;5079384;28;20047;-67
2022/09/02 01:37:24;;;;;;;13.93;6.50;;;17.60;99.90;;;;;;5079230;28;20020;-66
2022/09/02 01:39:51;;;;;;;10.48;6.43;;;17.50;99.90;;;;;;5078698;28;20337;-67
2022/09/02 01:42:18;;;;;;;10.80;6.55;;;17.50;99.90;;;;;;5078651;28;20025;-67
2022/09/02 01:44:45;;;;;;;15.88;7.10;;;17.40;99.90;;;;;;5078952;28;20040;-68
2022/09/02 01:47:21;;;;;;;12.48;6.60;;;17.40;99.90;;;;;;5078932;28;20396;-65
2022/09/02 01:49:49;;;;;;;9.25;6.65;;;17.50;99.90;;;;;;5096036;28;20417;-67
2022/09/02 01:52:16;;;;;;;12.60;7.07;;;17.50;99.90;;;;;;5079542;28;20300;-66
2022/09/02 01:54:43;;;;;;;11.32;6.68;;;17.40;99.90;;;;;;5079002;28;20411;-66
2022/09/02 01:57:09;;;;;;;15.63;6.35;;;17.30;99.90;;;;;;5079436;28;20067;-67
2022/09/02 01:59:36;;;;;;;12.20;7.15;;;17.20;99.90;;;;;;5078797;28;20412;-67
2022/09/02 02:02:04;;;;;;;13.20;6.78;;;17.30;99.90;;;;;;5078910;28;20046;-65
2022/09/02 02:04:32;;;;;;;13.57;6.97;;;17.30;99.90;;;;;;5078843;28;20024;-67
2022/09/02 02:06:58;;;;;;;10.63;6.30;;;17.30;99.90;;;;;;5078551;28;20035;-66
2022/09/02 02:09:25;;;;;;;13.80;6.65;;;17.20;99.90;;;;;;5078956;28;20425;-67
2022/09/02 02:11:52;;;;;;;13.38;6.55;;;17.10;99.90;;;;;;5079351;28;20067;-67
2022/09/02 02:14:18;;;;;;;10.93;6.05;;;17.10;99.90;;;;;;5061961;28;20120;-65
2022/09/02 02:16:48;;;;;;;9.63;6.13;;;17.10;99.90;;;;;;5078955;28;20043;-66
2022/09/02 02:19:14;;;;;;;14.43;6.63;;;17.10;99.90;;;;;;5078835;28;20037;-67
2022/09/02 02:21:40;;;;;;;10.52;6.30;;;17.10;99.90;;;;;;5079386;28;20082;-66
2022/09/02 02:24:07;;;;;;;13.93;6.78;;;17.10;99.90;;;;;;5078852;28;20040;-66
2022/09/02 02:26:34;;;;;;;11.55;6.00;;;17.10;99.90;;;;;;5078843;28;20300;-67
2022/09/02 02:29:02;;;;;;;11.10;6.10;;;17.10;99.90;;;;;;5081744;28;20388;-67
2022/09/02 02:31:28;;;;;;;11.35;6.20;;;17.10;99.90;;;;;;5083291;28;20169;-67
2022/09/02 02:33:54;;;;;;;10.63;5.97;;;17.20;99.90;;;;;;5082382;28;20120;-67
2022/09/02 02:36:21;;;;;;;11.77;6.22;;;17.10;99.90;;;;;;5083472;28;20085;-66
2022/09/02 02:38:47;;;;;;;8.25;6.00;;;17.10;99.90;;;;;;5082125;28;20047;-67
2022/09/02 02:41:14;;;;;;;11.52;6.20;;;17.00;99.90;;;;;;5083491;28;20036;-67
2022/09/02 02:43:41;;;;;;;12.50;6.20;;;16.90;99.90;;;;;;5099235;28;20028;-65
2022/09/02 02:46:08;;;;;;;12.25;5.63;;;17.00;99.90;;;;;;5082183;28;20503;-67
2022/09/02 02:48:37;;;;;;;9.95;5.55;;;17.00;99.90;;;;;;5099368;28;20190;-66
2022/09/02 02:51:04;;;;;;;12.02;6.07;;;17.00;99.90;;;;;;5099463;28;20058;-67
2022/09/02 02:53:33;;;;;;;9.82;6.18;;;17.00;99.90;;;;;;5082163;28;20029;-65
2022/09/02 02:55:59;;;;;;;11.23;6.28;;;17.10;99.90;;;;;;5099032;28;20029;-67
2022/09/02 02:58:25;;;;;;;9.80;6.00;;;17.10;99.90;;;;;;5081837;28;20138;-65
2022/09/02 03:00:52;;;;;;;9.80;6.40;;;16.90;99.90;;;;;;5081665;28;20024;-67
2022/09/02 03:03:21;;;;;;;10.02;5.93;;;16.80;99.90;;;;;;5081727;28;20028;-66
2022/09/02 03:05:52;;;;;;;10.70;5.75;;;16.80;99.90;;;;;;5098449;28;20025;-66
2022/09/02 03:08:19;;;;;;;9.30;6.03;;;16.80;99.90;;;;;;5081834;28;20162;-67
2022/09/02 03:10:48;;;;;;;10.32;6.10;;;16.70;99.90;;;;;;5081726;28;20021;-67
2022/09/02 03:13:15;;;;;;;10.48;6.03;;;16.60;99.90;;;;;;5065750;28;20450;-67
2022/09/02 03:15:42;;;;;;;8.30;5.57;;;16.60;99.90;;;;;;5081843;28;20299;-67
2022/09/02 03:18:09;;;;;;;10.52;5.70;;;16.60;99.90;;;;;;5081521;28;20033;-68
2022/09/02 03:20:35;;;;;;;11.70;6.10;;;16.60;99.90;;;;;;5098627;28;20047;-67
2022/09/02 03:23:04;;;;;;;9.98;5.75;;;16.50;99.90;;;;;;5081872;28;20048;-67
2022/09/02 03:25:32;;;;;;;10.52;5.65;;;16.40;99.90;;;;;;5081901;28;20119;-66
2022/09/02 03:28:03;;;;;;;10.90;6.38;;;16.50;99.90;;;;;;5081651;28;20101;-66
2022/09/02 03:30:31;;;;;;;8.60;5.38;;;16.60;99.90;;;;;;5081451;28;20309;-67
2022/09/02 03:32:59;;;;;;;9.70;5.68;;;16.60;99.90;;;;;;5082487;28;20392;-67
2022/09/02 03:35:27;;;;;;;10.85;5.72;;;16.60;99.90;;;;;;5081707;28;20085;-68
2022/09/02 03:37:54;;;;;;;8.07;5.55;;;16.50;99.90;;;;;;5082068;28;20287;-66
2022/09/02 03:40:24;;;;;;;8.30;5.13;;;16.50;99.90;;;;;;5081299;28;20293;-68
2022/09/02 03:42:52;;;;;;;8.20;5.88;;;16.50;99.90;;;;;;5082338;28;20411;-67
2022/09/02 03:45:19;;;;;;;10.30;5.20;;;16.60;99.90;;;;;;5081365;28;20056;-66
2022/09/02 03:47:52;;;;;;;12.77;5.75;;;16.50;99.90;;;;;;5081670;28;20384;-65
2022/09/02 03:50:26;;;;;;;6.88;4.85;;;16.50;99.90;;;;;;5098385;28;20160;-67
2022/09/02 03:52:53;;;;;;;12.43;5.85;;;16.50;99.90;;;;;;5082036;28;20024;-68
2022/09/02 03:55:20;;;;;;;8.57;5.85;;;16.50;99.90;;;;;;5080388;28;20029;-66
2022/09/02 03:57:47;;;;;;;10.40;5.57;;;16.50;99.90;;;;;;5080749;28;20127;-65
2022/09/02 04:00:15;;;;;;;12.77;5.40;;;16.50;99.90;;;;;;5082083;28;20427;-66
2022/09/02 04:02:44;;;;;;;9.57;5.35;;;16.50;99.90;;;;;;5097474;28;20293;-66
2022/09/02 04:05:11;;;;;;;7.15;4.72;;;16.50;99.90;;;;;;5080662;28;20376;-68
2022/09/02 04:07:39;;;;;;;7.80;4.90;;;16.50;99.90;;;;;;5064349;28;20036;-67
2022/09/02 04:10:07;;;;;;;10.38;6.00;;;16.50;99.90;;;;;;5097196;28;20081;-66
2022/09/02 04:12:36;;;;;;;8.68;5.35;;;16.60;99.90;;;;;;5097461;28;20033;-66
2022/09/02 04:15:07;;;;;;;8.70;5.10;;;16.50;99.90;;;;;;5080278;28;20118;-67
2022/09/02 04:17:39;;;;;;;8.27;5.00;;;16.50;99.90;;;;;;5080291;28;20032;-67
2022/09/02 04:20:10;;;;;;;8.57;5.50;;;16.60;99.90;;;;;;5096769;28;20286;-65
2022/09/02 04:22:36;;;;;;;7.72;4.85;;;16.60;99.90;;;;;;5080556;28;20024;-66
2022/09/02 04:25:03;;;;;;;10.38;5.20;;;16.70;99.90;;;;;;5080780;28;20032;-68
2022/09/02 04:27:30;;;;;;;8.65;5.25;;;16.70;99.90;;;;;;5063511;28;20059;-66
2022/09/02 04:29:56;;;;;;;8.63;4.90;;;16.70;99.90;;;;;;5080523;28;20043;-67
2022/09/02 04:32:24;;;;;;;8.55;4.93;;;16.70;99.90;;;;;;5080344;28;20032;-67
2022/09/02 04:34:50;;;;;;;12.20;5.25;;;16.80;99.90;;;;;;5079843;28;20037;-66
2022/09/02 04:37:17;;;;;;;10.43;5.53;;;16.80;99.90;;;;;;5081598;28;20043;-70
2022/09/02 04:39:43;;;;;;;8.38;5.38;;;16.80;99.90;;;;;;5080011;28;20037;-67
2022/09/02 04:42:09;;;;;;;11.15;5.40;;;16.80;99.90;;;;;;5081168;28;20033;-67
2022/09/02 04:44:35;;;;;;;14.02;5.30;;;16.70;99.90;;;;;;5063405;28;20340;-67
2022/09/02 04:47:02;;;;;;;9.70;5.00;;;16.70;99.90;;;;;;5080580;28;20040;-64
2022/09/02 04:49:30;;;;;;;8.32;5.25;;;16.70;99.90;;;;;;5079885;28;20029;-67
2022/09/02 04:51:57;;;;;;;8.32;4.97;;;16.80;99.90;;;;;;5080458;28;20401;-67
2022/09/02 04:54:25;;;;;;;6.65;4.85;;;16.90;99.90;;;;;;5079491;28;20063;-67
2022/09/02 04:56:51;;;;;;;7.93;4.78;;;17.00;99.90;;;;;;5079428;28;20024;-67
2022/09/02 04:59:20;;;;;;;7.30;4.95;;;17.00;99.90;;;;;;5079387;28;20033;-67
2022/09/02 05:01:56;;;;;;;10.77;5.78;;;17.10;99.90;;;;;;5079762;28;20396;-69
2022/09/02 05:04:25;;;;;;;8.13;5.28;;;17.10;99.90;;;;;;5079231;28;20032;-67
2022/09/02 05:06:53;;;;;;;6.75;4.82;;;17.00;99.90;;;;;;5079700;28;20066;-69
2022/09/02 05:09:20;;;;;;;10.07;5.80;;;17.00;99.90;;;;;;5079488;28;20056;-67
2022/09/02 05:12:03;;;;;;;11.57;5.68;;;17.00;99.90;;;;;;5078677;28;20028;-67
2022/09/02 05:14:38;;;;;;;6.80;5.00;;;17.00;99.90;;;;;;5076812;28;20020;-65
2022/09/02 05:17:06;;;;;;;9.30;4.85;;;17.00;99.90;;;;;;5093836;28;20056;-66
2022/09/02 05:19:33;;;;;;;11.23;5.30;;;17.00;99.90;;;;;;5076573;28;20056;-67
2022/09/02 05:22:00;;;;;;;8.38;4.30;;;17.10;99.90;;;;;;5077668;28;20031;-65
2022/09/02 05:24:38;;;;;;;8.00;4.93;;;17.10;99.90;;;;;;5076819;28;20029;-67
2022/09/02 05:27:08;;;;;;;8.23;4.70;;;17.10;99.90;;;;;;5077357;28;20059;-67
2022/09/02 05:29:35;;;;;;;9.40;5.05;;;17.00;99.90;;;;;;5076563;28;20304;-66
2022/09/02 05:32:02;;;;;;;9.23;4.78;;;17.10;99.90;;;;;;5077540;28;20029;-65
2022/09/02 05:34:29;;;;;;;10.95;5.10;;;17.30;99.90;;;;;;5076379;28;20086;-64
2022/09/02 05:36:58;;;;;;;10.98;5.22;;;17.30;99.90;;;;;;5076367;28;20028;-65
2022/09/02 05:39:26;;;;;;;6.43;4.97;;;17.50;99.90;;;;;;5076322;28;20083;-65
2022/09/02 05:41:53;;;;;;;6.18;4.22;;;17.50;99.90;;;;;;5076562;28;20056;-64
2022/09/02 05:44:19;;;;;;;6.72;4.65;;;17.50;99.90;;;;;;5076244;28;20040;-65
2022/09/02 05:46:45;;;;;;;9.43;4.60;;;17.40;99.90;;;;;;5076404;28;20301;-65
2022/09/02 05:49:16;;;;;;;12.65;4.50;;;17.40;99.90;;;;;;5077430;28;20032;-65
2022/09/02 05:51:56;;;;;;;8.80;4.75;;;17.50;99.90;;;;;;5076195;28;20352;-65
2022/09/02 05:54:31;;;;;;;12.23;4.68;;;17.50;99.90;;;;;;5093023;28;20056;-64
2022/09/02 05:57:10;;;;;;;17.27;4.88;;;17.50;99.90;;;;;;5076386;28;20085;-65
2022/09/02 05:59:41;;;;;;;6.00;4.45;;;17.50;99.90;;;;;;5092958;28;20055;-65
2022/09/02 06:02:10;;;;;;;12.82;5.50;;;17.60;99.90;;;;;;5075507;28;20039;-64
2022/09/02 06:04:47;;;;;;;9.48;5.22;;;17.70;99.90;;;;;;5076769;28;20033;-65
2022/09/02 06:07:15;;;;;;;12.93;5.20;;;17.60;99.90;;;;;;5076080;28;20020;-65
2022/09/02 06:09:44;;;;;;;6.22;4.68;;;17.70;99.90;;;;;;5060187;28;20028;-65
2022/09/02 06:12:12;;;;;;;13.20;5.07;;;17.70;99.90;;;;;;5075967;28;20044;-64
2022/09/02 06:14:38;;;;;;;10.40;4.95;;;17.80;99.90;;;;;;5075873;28;20032;-65
2022/09/02 06:17:06;;;;;;;7.78;4.65;;;17.70;99.90;;;;;;5075983;28;20115;-66
2022/09/02 06:19:38;;;;;;;6.22;4.05;;;17.80;99.90;;;;;;5075899;28;20498;-66
2022/09/02 06:22:06;;;;;;;10.10;4.85;;;17.80;99.90;;;;;;5075872;28;20131;-66
2022/09/02 06:24:35;;;;;;;6.70;3.83;;;17.90;99.90;;;;;;5075728;28;20349;-66
2022/09/02 06:27:06;;;;;;;5.50;3.38;;;18.00;99.90;;;;;;5076010;28;20301;-64
2022/09/02 06:29:33;;;;;;;12.15;4.30;;;18.60;99.90;;;;;;5077023;28;20029;-66
2022/09/02 06:31:59;;;;;;;8.95;4.45;;;18.40;99.90;;;;;;5075974;28;20059;-64
2022/09/02 06:34:26;;;;;;;6.07;3.92;;;18.40;99.90;;;;;;5076838;28;20053;-65
2022/09/02 06:36:53;;;;;;;5.10;4.10;;;18.30;99.90;;;;;;5075823;28;20025;-65
2022/09/02 06:39:22;;;;;;;8.48;4.22;;;18.40;99.90;;;;;;5075864;28;20107;-66
2022/09/02 06:41:49;;;;;;;7.93;4.15;;;18.40;99.90;;;;;;5075776;28;20130;-66
2022/09/02 06:44:20;;;;;;;7.20;3.88;;;18.30;99.90;;;;;;5076395;28;20124;-65
2022/09/02 06:46:52;;;;;;;7.78;3.80;;;18.50;99.90;;;;;;5092772;28;20029;-66
2022/09/02 06:49:19;;;;;;;7.00;4.10;;;18.50;99.90;;;;;;5077008;28;20060;-66
2022/09/02 06:51:48;;;;;;;7.80;4.22;;;18.50;99.90;;;;;;5075500;28;20404;-66
2022/09/02 06:54:17;;;;;;;7.72;4.13;;;18.60;99.90;;;;;;5075857;28;20028;-64
2022/09/02 06:56:46;;;;;;;4.30;3.40;;;18.70;99.90;;;;;;5075849;28;20017;-65
2022/09/02 06:59:12;;;;;;;6.65;4.20;;;18.80;99.90;;;;;;5092181;28;20289;-64
2022/09/02 07:01:44;;;;;;;11.63;4.30;;;18.90;99.90;;;;;;5075618;28;20093;-65
2022/09/02 07:06:59;;;;;;;8.57;3.85;;;19.00;99.90;;;;;;5076457;28;20300;-66
2022/09/02 07:09:31;;;;;;;12.23;3.72;;;19.00;99.90;;;;;;5075397;28;20144;-66
2022/09/02 07:12:04;;;;;;;10.35;3.60;;;19.20;99.90;;;;;;5075589;28;20029;-65
2022/09/02 07:14:38;;;;;;;5.18;3.45;;;19.10;99.90;;;;;;5077610;28;20025;-66
2022/09/02 07:17:05;;;;;;;7.20;3.47;;;19.10;99.90;;;;;;5096114;28;20021;-66
2022/09/02 07:19:31;;;;;;;9.38;3.30;;;19.20;99.90;;;;;;5078762;28;20040;-65
2022/09/02 07:21:57;;;;;;;8.40;3.38;;;19.30;99.90;;;;;;5079759;28;20024;-67
2022/09/02 07:24:24;;;;;;;9.48;3.50;;;19.40;99.90;;;;;;5079757;28;20415;-64
2022/09/02 07:26:52;;;;;;;6.90;3.10;;;19.50;99.90;;;;;;5095598;28;20039;-64
2022/09/02 07:29:18;;;;;;;5.93;3.08;;;19.60;99.90;;;;;;5056322;23;20060;-66
2022/09/02 07:31:47;;;;;;;4.45;2.85;;;19.80;99.90;;;;;;5058932;28;20025;-64
2022/09/02 07:34:17;;;;;;;14.88;3.42;;;19.70;99.90;;;;;;5059468;28;20029;-66
2022/09/02 07:36:47;;;;;;;7.15;2.75;;;19.50;99.90;;;;;;5058693;28;20094;-65
2022/09/02 07:39:16;;;;;;;8.07;2.88;;;19.70;99.90;;;;;;5042358;28;20040;-64
2022/09/02 07:41:45;;;;;;;6.15;2.88;;;19.90;99.90;;;;;;5058475;28;20413;-66
2022/09/02 07:44:12;;;;;;;9.07;2.78;;;20.10;99.90;;;;;;5058886;28;20067;-65
2022/09/02 07:46:40;;;;;;;5.15;2.80;;;20.30;99.90;;;;;;5058544;28;20021;-65
2022/09/02 07:49:08;;;;;;;7.55;2.47;;;20.50;99.90;;;;;;5058507;28;20035;-65
2022/09/02 07:51:35;;;;;;;4.20;2.50;;;20.60;99.90;;;;;;5059233;28;20111;-65
2022/09/02 07:54:02;;;;;;;3.38;2.45;;;20.70;99.90;;;;;;5059168;28;20349;-64
2022/09/02 07:56:28;;;;;;;7.03;2.70;;;20.80;99.90;;;;;;5059171;28;20071;-65
2022/09/02 07:58:54;;;;;;;5.60;2.60;;;20.80;99.90;;;;;;5058255;28;20124;-66
2022/09/02 08:01:21;;;;;;;5.65;2.67;;;20.90;99.90;;;;;;5059092;28;20028;-66
2022/09/02 08:03:48;;;;;;;8.75;2.70;;;21.00;99.90;;;;;;5058297;28;20070;-66
2022/09/02 08:06:14;;;;;;;7.40;2.97;;;21.20;99.90;;;;;;5058118;28;20021;-66
2022/09/02 08:08:41;;;;;;;8.35;2.60;;;21.20;99.90;;;;;;5058633;28;20408;-65
2022/09/02 08:11:07;;;;;;;8.35;2.85;;;21.30;99.90;;;;;;5058806;28;20025;-65
2022/09/02 08:13:35;;;;;;;4.15;2.20;;;21.40;99.90;;;;;;5059382;28;20381;-65
2022/09/02 08:16:01;;;;;;;10.07;2.70;;;21.50;99.90;;;;;;5058875;28;20441;-66
2022/09/02 08:18:29;;;;;;;6.03;2.80;;;21.60;99.90;;;;;;5059161;28;20040;-66
2022/09/02 08:20:54;;;;;;;5.32;2.70;;;21.70;99.90;;;;;;5058877;28;20321;-66
2022/09/02 08:23:20;;;;;;;5.35;2.53;;;21.80;99.90;;;;;;5058635;28;20029;-65
2022/09/02 08:25:46;;;;;;;5.40;2.28;;;21.80;99.90;;;;;;5058060;28;20017;-66
2022/09/02 08:28:12;;;;;;;6.88;2.42;;;21.90;99.90;;;;;;5064136;28;20060;-65
2022/09/02 08:30:39;;;;;;;6.72;2.38;;;21.90;99.90;;;;;;5098685;28;20051;-65
2022/09/02 08:33:04;;;;;;;5.47;2.15;;;21.90;99.90;;;;;;5098921;28;20475;-65
2022/09/02 08:35:30;;;;;;;6.25;2.40;;;21.80;99.90;;;;;;5098130;28;20115;-65
2022/09/02 08:37:59;;;;;;;4.43;2.38;;;21.90;99.90;;;;;;5098949;28;20032;-66
2022/09/02 08:40:40;;;;;;;4.45;2.40;;;22.00;99.90;;;;;;5098208;28;20043;-65
2022/09/02 08:43:38;;;;;;;5.82;2.22;;;22.10;99.90;;;;;;5098564;28;20303;-66
2022/09/02 08:46:10;;;;;;;4.18;2.20;;;22.30;99.90;;;;;;5098120;28;20027;-66
2022/09/02 08:48:38;;;;;;;7.03;2.60;;;22.50;99.90;;;;;;5080614;28;20123;-66
2022/09/02 08:51:12;;;;;;;5.63;2.10;;;22.60;99.90;;;;;;5098244;28;20074;-66
2022/09/02 08:54:07;;;;;;;4.63;2.20;;;22.70;99.90;;;;;;5098533;28;20032;-65
2022/09/02 08:56:33;;;;;;;3.47;2.13;;;22.90;99.90;;;;;;5098161;28;20419;-65
2022/09/02 08:59:02;;;;;;;2.92;2.15;;;23.00;99.90;;;;;;5098170;28;20056;-65
2022/09/02 09:02:03;;;;;;;5.53;2.10;;;22.90;99.90;;;;;;5098086;28;20071;-65
2022/09/02 09:05:07;;;;;;;3.28;2.17;;;22.80;99.90;;;;;;5080549;28;20028;-64
2022/09/02 09:07:49;;;;;;;3.03;1.80;;;22.90;99.90;;;;;;5098167;28;20028;-65
2022/09/02 09:10:37;;;;;;;2.47;1.88;;;23.10;99.90;;;;;;5080441;28;20410;-66
2022/09/02 09:13:41;;;;;;;4.65;2.47;;;23.30;99.90;;;;;;5098607;28;20136;-66
2022/09/02 09:16:27;;;;;;;5.88;2.30;;;23.30;99.90;;;;;;5098073;28;20024;-66
2022/09/02 09:19:14;;;;;;;3.92;2.15;;;23.40;99.90;;;;;;5080698;28;20043;-66
2022/09/02 09:21:41;;;;;;;7.57;2.20;;;23.50;99.90;;;;;;5097800;28;20028;-66
2022/09/02 09:24:16;;;;;;;4.00;2.13;;;23.50;99.90;;;;;;5080469;28;20024;-66
2022/09/02 09:26:43;;;;;;;4.45;2.28;;;23.70;99.90;;;;;;5080252;28;20071;-65
2022/09/02 09:29:09;;;;;;;2.50;1.95;;;23.60;99.90;;;;;;5097535;28;20063;-66
2022/09/02 09:31:37;;;;;;;3.90;2.13;;;23.50;99.90;;;;;;5079966;28;20032;-65
2022/09/02 09:34:13;;;;;;;2.58;2.25;;;23.40;99.90;;;;;;5097602;28;20028;-65
2022/09/02 09:36:52;;;;;;;2.60;2.30;;;23.40;99.90;;;;;;5097416;28;20427;-65
2022/09/02 09:39:24;;;;;;;2.80;2.30;;;23.40;99.90;;;;;;5079785;28;20036;-64
2022/09/02 09:41:52;;;;;;;5.68;2.10;;;23.70;99.90;;;;;;5097836;28;20071;-64
2022/09/02 09:44:45;;;;;;;2.78;1.90;;;23.80;99.90;;;;;;5097261;28;20016;-66
2022/09/02 09:47:21;;;;;;;2.33;1.80;;;24.10;99.90;;;;;;5097316;28;20031;-66
2022/09/02 09:49:52;;;;;;;3.67;2.50;;;24.30;99.90;;;;;;5097173;28;20020;-66
2022/09/02 09:52:29;;;;;;;4.28;2.20;;;24.30;99.90;;;;;;5097488;28;20029;-68
2022/09/02 09:55:25;;;;;;;3.75;2.28;;;24.40;99.90;;;;;;5097128;28;20024;-65
2022/09/02 09:57:52;;;;;;;4.85;2.05;;;24.10;99.90;;;;;;5059390;28;20100;-65
2022/09/02 10:00:28;;;;;;;4.93;2.05;;;24.20;99.90;;;;;;5097375;28;20385;-66
2022/09/02 10:02:57;;;;;;;6.82;2.17;;;24.30;99.90;;;;;;5097108;28;20296;-66
2022/09/02 10:05:23;;;;;;;6.18;2.00;;;24.70;99.90;;;;;;5079534;28;20071;-65
2022/09/02 10:08:04;;;;;;;4.32;2.22;;;25.00;99.90;;;;;;5097103;28;20068;-64
2022/09/02 10:10:32;;;;;;;5.43;2.22;;;25.10;99.90;;;;;;5096945;28;20036;-64
2022/09/02 10:13:15;;;;;;;4.00;2.25;;;25.00;99.90;;;;;;5079495;28;20040;-65
2022/09/02 10:16:01;;;;;;;5.75;2.17;;;25.10;99.90;;;;;;5096963;28;20039;-65
2022/09/02 10:18:40;;;;;;;4.13;2.13;;;25.10;99.90;;;;;;5097552;28;20079;-64
2022/09/02 10:21:37;;;;;;;2.28;1.92;;;25.50;99.90;;;;;;5097096;28;20445;-63
2022/09/02 10:24:32;;;;;;;3.42;2.22;;;25.50;99.90;;;;;;5097316;28;20035;-65
2022/09/02 10:26:59;;;;;;;3.28;2.00;;;26.10;99.90;;;;;;5096849;28;20028;-66
2022/09/02 10:30:02;;;;;;;4.40;1.80;;;26.40;99.90;;;;;;5096551;28;20082;-65
2022/09/02 10:32:42;;;;;;;4.43;1.90;;;26.90;99.90;;;;;;5081594;28;20358;-65
2022/09/02 10:35:15;;;;;;;3.05;1.63;;;27.00;99.90;;;;;;5096922;28;20085;-64
2022/09/02 10:38:02;;;;;;;4.70;1.95;;;26.90;99.90;;;;;;5079309;28;20300;-65
2022/09/02 10:40:44;;;;;;;3.65;1.90;;;27.10;99.90;;;;;;5096737;28;20284;-66
2022/09/02 10:43:27;;;;;;;6.07;2.00;;;27.40;99.90;;;;;;5096846;28;20055;-65
2022/09/02 10:46:03;;;;;;;2.90;1.70;;;27.90;99.90;;;;;;5097026;28;20261;-65
2022/09/02 10:49:00;;;;;;;2.35;1.40;;;28.40;99.90;;;;;;5097320;28;20056;-66
2022/09/02 10:51:39;;;;;;;5.20;1.40;;;28.70;99.90;;;;;;5101439;28;20103;-64
2022/09/02 10:54:17;;;;;;;3.72;1.42;;;29.30;99.90;;;;;;5100751;28;20044;-65
2022/09/02 10:56:57;;;;;;;1.50;1.40;;;29.70;98.00;;;;;;5100630;28;20036;-66
2022/09/02 10:59:38;;;;;;;3.00;1.30;;;30.60;94.80;;;;;;5100781;28;20039;-65
2022/09/02 11:02:21;;;;;;;4.32;1.30;;;31.00;92.40;;;;;;5100597;28;20032;-66
2022/09/02 11:05:02;;;;;;;3.20;1.13;;;31.30;91.60;;;;;;5100518;28;20137;-64
2022/09/02 11:07:41;;;;;;;1.58;1.35;;;32.00;90.20;;;;;;5083278;28;20111;-64
2022/09/02 11:10:36;;;;;;;2.00;1.50;;;31.80;86.80;;;;;;5100377;28;20036;-65
2022/09/02 11:13:23;;;;;;;3.00;1.40;;;31.80;86.30;;;;;;5080339;28;20435;-65
2022/09/02 11:15:58;;;;;;;3.35;1.45;;;31.30;85.90;;;;;;5100032;28;20051;-65
2022/09/02 11:18:42;;;;;;;2.15;1.40;;;31.40;84.60;;;;;;5100487;28;20077;-65
2022/09/02 11:21:11;;;;;;;6.93;1.48;;;32.20;81.10;;;;;;5082491;28;20083;-65
2022/09/02 11:23:52;;;;;;;2.85;1.48;;;31.40;83.20;;;;;;5100058;28;20036;-64
2022/09/02 11:26:21;;;;;;;4.18;1.40;;;31.50;83.40;;;;;;5099638;28;20102;-65
2022/09/02 11:28:56;;;;;;;6.30;1.48;;;31.20;82.40;;;;;;5099789;28;20044;-66
2022/09/02 11:31:42;;;;;;;3.10;1.63;;;31.20;83.00;;;;;;5099900;28;20092;-65
2022/09/02 11:34:40;;;;;;;3.10;1.20;;;32.30;80.00;;;;;;5099944;28;20296;-65
2022/09/02 11:37:28;;;;;;;2.88;1.30;;;32.50;76.50;;;;;;5099225;28;20028;-67
2022/09/02 11:40:11;;;;;;;4.18;1.58;;;31.70;76.90;;;;;;5099614;28;20035;-65
2022/09/02 11:42:57;;;;;;;4.85;1.40;;;31.60;76.60;;;;;;5099829;28;20028;-64
2022/09/02 11:45:50;;;;;;;1.60;1.30;;;31.80;75.90;;;;;;5099756;28;20095;-65
2022/09/02 11:48:16;;;;;;;;;;;31.40;75.90;;;;;;5100131;28;20423;-65
2022/09/02 11:51:29;;;;;;;1.88;1.20;;;31.50;76.60;;;;;;5081901;28;19915;-65
2022/09/02 11:53:55;;;;;;;;;;;32.00;73.40;;;;;;4998733;28;20049;-67
2022/09/02 11:56:29;;;;;;;5.18;1.40;;;32.30;71.80;;;;;;5079464;28;20014;-65
2022/09/02 11:58:55;;;;;;;3.10;1.38;;;32.70;69.80;;;;;;5099410;28;20039;-64
2022/09/02 12:01:26;;;;;;;2.78;1.20;;;33.10;68.70;;;;;;5098637;28;20032;-65
2022/09/02 12:04:04;;;;;;;2.42;1.40;;;34.00;66.40;;;;;;5099459;28;20039;-65
2022/09/02 12:06:31;;;;;;;4.85;1.20;;;35.00;62.90;;;;;;5082490;28;20276;-66
2022/09/02 12:09:04;;;;;;;2.35;1.10;;;34.20;60.70;;;;;;5099147;28;20038;-66
2022/09/02 12:11:36;;;;;;;2.35;0.98;;;34.30;58.90;;;;;;5099245;28;20073;-64
2022/09/02 12:14:10;;;;;;;1.98;0.88;;;33.40;58.90;;;;;;5099636;28;20046;-65
2022/09/02 12:17:01;;;;;;;3.90;1.10;;;33.20;59.60;;;;;;5081392;28;20024;-64
2022/09/02 12:19:39;;;;;;;3.00;1.10;;;33.50;58.70;;;;;;5099110;28;20039;-65
2022/09/02 12:22:17;;;;;;;3.83;1.10;;;33.50;57.90;;;;;;5098895;28;20399;-65
2022/09/02 12:24:53;;;;;;;1.95;1.10;;;34.30;56.70;;;;;;5099181;28;20023;-64
2022/09/02 12:27:36;;;;;;;3.28;1.20;;;35.20;56.50;;;;;;5098916;28;20024;-66
2022/09/02 12:30:06;;;;;;;2.78;1.08;;;35.10;56.40;;;;;;5081319;28;20323;-65
2022/09/02 12:33:01;;;;;;;4.03;1.20;;;36.30;54.20;;;;;;5081209;28;20044;-65
2022/09/02 12:35:47;;;;;;;5.78;1.10;;;36.30;53.10;;;;;;5077931;28;20457;-65
2022/09/02 12:38:13;;;;;;;1.95;1.30;;;36.10;54.90;;;;;;5098764;28;20032;-65
2022/09/02 12:41:11;;;;;;;3.95;1.13;;;36.90;52.40;;;;;;5081070;28;20064;-65
2022/09/02 12:44:01;;;;;;;4.18;1.20;;;36.40;51.50;;;;;;5099154;28;20020;-64
2022/09/02 12:46:34;;;;;;;3.78;1.33;;;35.90;51.40;;;;;;5098796;28;20452;-64
2022/09/02 12:49:10;;;;;;;3.90;1.10;;;36.00;52.10;;;;;;5098949;28;20285;-65
2022/09/02 12:51:56;;;;;;;2.22;1.13;;;36.60;50.90;;;;;;5098754;28;20024;-65
2022/09/02 12:54:46;;;;;;;2.95;1.10;;;36.30;49.60;;;;;;5080868;28;20031;-64
2022/09/02 12:57:15;;;;;;;1.40;1.20;;;36.00;50.40;;;;;;5081098;28;20400;-64
2022/09/02 12:59:41;;;;;;;3.65;1.00;;;35.70;50.20;;;;;;5098232;28;20119;-64
2022/09/02 13:02:58;;;;;;;5.20;1.27;;;35.00;51.40;;;;;;5098459;28;20394;-65
2022/09/02 13:05:53;;;;;;;4.05;1.05;;;33.40;52.70;;;;;;5080477;28;20093;-66
2022/09/02 13:08:52;;;;;;;2.20;1.00;;;33.80;53.60;;;;;;5080561;28;20032;-64
2022/09/02 13:11:36;;;;;;;2.35;1.02;;;35.20;50.80;;;;;;5098359;28;20296;-67
2022/09/02 13:14:28;;;;;;;3.00;1.05;;;35.40;50.00;;;;;;5098445;28;20023;-66